sensor_id;sensor_type;location;lat;lon;timestamp;temperature;humidity
59855;DHT22;45732;52.850;6.896;2022-11-20T00:01:42;0.00;99.90
59855;DHT22;45732;52.850;6.896;2022-11-20T00:04:09;0.00;99.90
59855;DHT22;45732;52.850;6.896;2022-11-20T00:06:35;0.10;99.90
59855;DHT22;45732;52.850;6.896;2022-11-20T00:09:01;0.10;99.90
59855;DHT22;45732;52.850;6.896;2022-11-20T00:11:28;0.10;99.90
59855;DHT22;45732;52.850;6.896;2022-11-20T00:13:56;0.10;99.90
59855;DHT22;45732;52.850;6.896;2022-11-20T00:16:27;0.10;99.90
59855;DHT22;45732;52.850;6.896;2022-11-20T00:18:53;0.10;99.90
59855;DHT22;45732;52.850;6.896;2022-11-20T00:21:24;0.10;99.90
59855;DHT22;45732;52.850;6.896;2022-11-20T00:23:51;0.20;99.90
59855;DHT22;45732;52.850;6.896;2022-11-20T00:26:19;0.20;99.90
59855;DHT22;45732;52.850;6.896;2022-11-20T00:28:50;0.20;99.90
59855;DHT22;45732;52.850;6.896;2022-11-20T00:31:16;0.30;99.90
59855;DHT22;45732;52.850;6.896;2022-11-20T00:33:43;0.30;99.90
59855;DHT22;45732;52.850;6.896;2022-11-20T00:38:39;0.30;99.90
59855;DHT22;45732;52.850;6.896;2022-11-20T00:41:07;0.30;99.90
59855;DHT22;45732;52.850;6.896;2022-11-20T00:43:33;0.40;99.90
59855;DHT22;45732;52.850;6.896;2022-11-20T00:46:07;0.40;99.90
59855;DHT22;45732;52.850;6.896;2022-11-20T00:48:33;0.50;99.90
59855;DHT22;45732;52.850;6.896;2022-11-20T00:50:59;0.50;99.90
59855;DHT22;45732;52.850;6.896;2022-11-20T00:53:25;0.50;99.90
59855;DHT22;45732;52.850;6.896;2022-11-20T00:56:05;0.50;99.90
59855;DHT22;45732;52.850;6.896;2022-11-20T00:58:37;0.60;99.90
59855;DHT22;45732;52.850;6.896;2022-11-20T01:01:08;0.60;99.90
59855;DHT22;45732;52.850;6.896;2022-11-20T01:03:36;0.50;99.90
59855;DHT22;45732;52.850;6.896;2022-11-20T01:06:09;0.50;99.90
59855;DHT22;45732;52.850;6.896;2022-11-20T01:08:35;0.50;99.90
59855;DHT22;45732;52.850;6.896;2022-11-20T01:11:03;0.50;99.90
59855;DHT22;45732;52.850;6.896;2022-11-20T01:13:30;0.50;99.90
59855;DHT22;45732;52.850;6.896;2022-11-20T01:18:33;0.50;99.90
59855;DHT22;45732;52.850;6.896;2022-11-20T01:21:08;0.50;99.90
59855;DHT22;45732;52.850;6.896;2022-11-20T01:23:35;0.60;99.90
59855;DHT22;45732;52.850;6.896;2022-11-20T01:26:03;0.60;99.90
59855;DHT22;45732;52.850;6.896;2022-11-20T01:28:29;0.60;99.90
59855;DHT22;45732;52.850;6.896;2022-11-20T01:30:55;0.50;99.90
59855;DHT22;45732;52.850;6.896;2022-11-20T01:33:21;0.40;99.90
59855;DHT22;45732;52.850;6.896;2022-11-20T01:35:46;0.50;99.90
59855;DHT22;45732;52.850;6.896;2022-11-20T01:38:12;0.60;99.90
59855;DHT22;45732;52.850;6.896;2022-11-20T01:40:38;0.60;99.90
59855;DHT22;45732;52.850;6.896;2022-11-20T01:43:18;0.60;99.90
59855;DHT22;45732;52.850;6.896;2022-11-20T01:48:14;0.70;99.90
59855;DHT22;45732;52.850;6.896;2022-11-20T01:50:40;0.70;99.90
59855;DHT22;45732;52.850;6.896;2022-11-20T01:53:11;0.70;99.90
59855;DHT22;45732;52.850;6.896;2022-11-20T01:55:45;0.70;99.90
59855;DHT22;45732;52.850;6.896;2022-11-20T01:58:12;0.70;99.90
59855;DHT22;45732;52.850;6.896;2022-11-20T02:00:39;0.70;99.90
59855;DHT22;45732;52.850;6.896;2022-11-20T02:03:12;0.70;99.90
59855;DHT22;45732;52.850;6.896;2022-11-20T02:06:13;0.80;99.90
59855;DHT22;45732;52.850;6.896;2022-11-20T02:08:40;0.80;99.90
59855;DHT22;45732;52.850;6.896;2022-11-20T02:11:06;0.70;99.90
59855;DHT22;45732;52.850;6.896;2022-11-20T02:13:33;0.60;99.90
59855;DHT22;45732;52.850;6.896;2022-11-20T02:18:43;0.80;99.90
59855;DHT22;45732;52.850;6.896;2022-11-20T02:24:04;0.80;99.90
59855;DHT22;45732;52.850;6.896;2022-11-20T02:26:35;0.90;99.90
59855;DHT22;45732;52.850;6.896;2022-11-20T02:29:03;0.80;99.90
59855;DHT22;45732;52.850;6.896;2022-11-20T02:31:33;0.80;99.90
59855;DHT22;45732;52.850;6.896;2022-11-20T02:33:59;0.80;99.90
59855;DHT22;45732;52.850;6.896;2022-11-20T02:36:27;0.80;99.90
59855;DHT22;45732;52.850;6.896;2022-11-20T02:38:53;0.90;99.90
59855;DHT22;45732;52.850;6.896;2022-11-20T02:41:19;0.90;99.90
59855;DHT22;45732;52.850;6.896;2022-11-20T02:43:45;0.90;99.90
59855;DHT22;45732;52.850;6.896;2022-11-20T02:46:11;0.80;99.90
59855;DHT22;45732;52.850;6.896;2022-11-20T02:48:37;0.90;99.90
59855;DHT22;45732;52.850;6.896;2022-11-20T02:51:02;0.90;99.90
59855;DHT22;45732;52.850;6.896;2022-11-20T02:53:28;0.90;99.90
59855;DHT22;45732;52.850;6.896;2022-11-20T02:55:54;0.80;99.90
59855;DHT22;45732;52.850;6.896;2022-11-20T02:58:19;0.90;99.90
59855;DHT22;45732;52.850;6.896;2022-11-20T03:00:45;0.90;99.90
59855;DHT22;45732;52.850;6.896;2022-11-20T03:03:11;0.90;99.90
59855;DHT22;45732;52.850;6.896;2022-11-20T03:05:36;0.90;99.90
59855;DHT22;45732;52.850;6.896;2022-11-20T03:08:02;0.90;99.90
59855;DHT22;45732;52.850;6.896;2022-11-20T03:10:28;0.80;99.90
59855;DHT22;45732;52.850;6.896;2022-11-20T03:12:54;0.80;99.90
59855;DHT22;45732;52.850;6.896;2022-11-20T03:15:24;0.90;99.90
59855;DHT22;45732;52.850;6.896;2022-11-20T03:17:53;1.00;99.90
59855;DHT22;45732;52.850;6.896;2022-11-20T03:20:20;1.00;99.90
59855;DHT22;45732;52.850;6.896;2022-11-20T03:22:45;0.90;99.90
59855;DHT22;45732;52.850;6.896;2022-11-20T03:25:11;1.00;99.90
59855;DHT22;45732;52.850;6.896;2022-11-20T03:27:36;1.10;99.90
59855;DHT22;45732;52.850;6.896;2022-11-20T03:30:03;1.10;99.90
59855;DHT22;45732;52.850;6.896;2022-11-20T03:32:29;1.10;99.90
59855;DHT22;45732;52.850;6.896;2022-11-20T03:34:54;1.00;99.90
59855;DHT22;45732;52.850;6.896;2022-11-20T03:37:20;1.10;99.90
59855;DHT22;45732;52.850;6.896;2022-11-20T03:39:46;1.10;99.90
59855;DHT22;45732;52.850;6.896;2022-11-20T03:42:11;1.10;99.90
59855;DHT22;45732;52.850;6.896;2022-11-20T03:44:56;1.10;99.90
59855;DHT22;45732;52.850;6.896;2022-11-20T03:47:21;1.10;99.90
59855;DHT22;45732;52.850;6.896;2022-11-20T03:49:47;1.00;99.90
59855;DHT22;45732;52.850;6.896;2022-11-20T03:52:13;1.10;99.90
59855;DHT22;45732;52.850;6.896;2022-11-20T03:54:39;1.00;99.90
59855;DHT22;45732;52.850;6.896;2022-11-20T03:57:04;1.10;99.90
59855;DHT22;45732;52.850;6.896;2022-11-20T03:59:30;1.10;99.90
59855;DHT22;45732;52.850;6.896;2022-11-20T04:01:55;1.10;99.90
59855;DHT22;45732;52.850;6.896;2022-11-20T04:04:21;1.20;99.90
59855;DHT22;45732;52.850;6.896;2022-11-20T04:06:47;1.10;99.90
59855;DHT22;45732;52.850;6.896;2022-11-20T04:09:12;1.20;99.90
59855;DHT22;45732;52.850;6.896;2022-11-20T04:11:40;1.20;99.90
59855;DHT22;45732;52.850;6.896;2022-11-20T04:14:11;1.20;99.90
59855;DHT22;45732;52.850;6.896;2022-11-20T04:16:38;1.10;99.90
59855;DHT22;45732;52.850;6.896;2022-11-20T04:19:05;1.10;99.90
59855;DHT22;45732;52.850;6.896;2022-11-20T04:21:32;1.10;99.90
59855;DHT22;45732;52.850;6.896;2022-11-20T04:23:58;1.10;99.90
59855;DHT22;45732;52.850;6.896;2022-11-20T04:26:25;1.10;99.90
59855;DHT22;45732;52.850;6.896;2022-11-20T04:28:51;1.10;99.90
59855;DHT22;45732;52.850;6.896;2022-11-20T04:31:23;1.10;99.90
59855;DHT22;45732;52.850;6.896;2022-11-20T04:33:50;1.20;99.90
59855;DHT22;45732;52.850;6.896;2022-11-20T04:36:26;1.20;99.90
59855;DHT22;45732;52.850;6.896;2022-11-20T04:38:56;1.20;99.90
59855;DHT22;45732;52.850;6.896;2022-11-20T04:41:25;1.20;99.90
59855;DHT22;45732;52.850;6.896;2022-11-20T04:43:53;1.20;99.90
59855;DHT22;45732;52.850;6.896;2022-11-20T04:46:24;1.20;99.90
59855;DHT22;45732;52.850;6.896;2022-11-20T04:48:50;1.30;99.90
59855;DHT22;45732;52.850;6.896;2022-11-20T04:51:15;1.30;99.90
59855;DHT22;45732;52.850;6.896;2022-11-20T04:53:41;1.20;99.90
59855;DHT22;45732;52.850;6.896;2022-11-20T04:56:09;1.20;99.90
59855;DHT22;45732;52.850;6.896;2022-11-20T04:58:35;1.20;99.90
59855;DHT22;45732;52.850;6.896;2022-11-20T05:01:03;1.10;99.90
59855;DHT22;45732;52.850;6.896;2022-11-20T05:03:30;1.20;99.90
59855;DHT22;45732;52.850;6.896;2022-11-20T05:05:55;1.20;99.90
59855;DHT22;45732;52.850;6.896;2022-11-20T05:08:21;1.10;99.90
59855;DHT22;45732;52.850;6.896;2022-11-20T05:10:47;1.10;99.90
59855;DHT22;45732;52.850;6.896;2022-11-20T05:13:13;1.10;99.90
59855;DHT22;45732;52.850;6.896;2022-11-20T05:15:38;1.10;99.90
59855;DHT22;45732;52.850;6.896;2022-11-20T05:18:04;1.20;99.90
59855;DHT22;45732;52.850;6.896;2022-11-20T05:20:29;1.20;99.90
59855;DHT22;45732;52.850;6.896;2022-11-20T05:22:58;1.20;99.90
59855;DHT22;45732;52.850;6.896;2022-11-20T05:25:24;1.30;99.90
59855;DHT22;45732;52.850;6.896;2022-11-20T05:27:50;1.20;99.90
59855;DHT22;45732;52.850;6.896;2022-11-20T05:30:16;1.20;99.90
59855;DHT22;45732;52.850;6.896;2022-11-20T05:32:41;1.30;99.90
59855;DHT22;45732;52.850;6.896;2022-11-20T05:35:07;1.20;99.90
59855;DHT22;45732;52.850;6.896;2022-11-20T05:37:33;1.20;99.90
59855;DHT22;45732;52.850;6.896;2022-11-20T05:39:59;1.30;99.90
59855;DHT22;45732;52.850;6.896;2022-11-20T05:42:24;1.30;99.90
59855;DHT22;45732;52.850;6.896;2022-11-20T05:45:00;1.30;99.90
59855;DHT22;45732;52.850;6.896;2022-11-20T05:47:32;1.30;99.90
59855;DHT22;45732;52.850;6.896;2022-11-20T05:49:58;1.30;99.90
59855;DHT22;45732;52.850;6.896;2022-11-20T05:52:24;1.30;99.90
59855;DHT22;45732;52.850;6.896;2022-11-20T05:54:50;1.40;99.90
59855;DHT22;45732;52.850;6.896;2022-11-20T05:57:16;1.40;99.90
59855;DHT22;45732;52.850;6.896;2022-11-20T05:59:42;1.40;99.90
59855;DHT22;45732;52.850;6.896;2022-11-20T06:02:08;1.40;99.90
59855;DHT22;45732;52.850;6.896;2022-11-20T06:04:33;1.40;99.90
59855;DHT22;45732;52.850;6.896;2022-11-20T06:06:59;1.40;99.90
59855;DHT22;45732;52.850;6.896;2022-11-20T06:09:25;1.40;99.90
59855;DHT22;45732;52.850;6.896;2022-11-20T06:11:50;1.30;99.90
59855;DHT22;45732;52.850;6.896;2022-11-20T06:14:16;1.30;99.90
59855;DHT22;45732;52.850;6.896;2022-11-20T06:16:41;1.40;99.90
59855;DHT22;45732;52.850;6.896;2022-11-20T06:19:07;1.40;99.90
59855;DHT22;45732;52.850;6.896;2022-11-20T06:21:33;1.40;99.90
59855;DHT22;45732;52.850;6.896;2022-11-20T06:23:58;1.40;99.90
59855;DHT22;45732;52.850;6.896;2022-11-20T06:26:26;1.30;99.90
59855;DHT22;45732;52.850;6.896;2022-11-20T06:28:53;1.30;99.90
59855;DHT22;45732;52.850;6.896;2022-11-20T06:31:20;1.40;99.90
59855;DHT22;45732;52.850;6.896;2022-11-20T06:33:47;1.40;99.90
59855;DHT22;45732;52.850;6.896;2022-11-20T06:36:14;1.40;99.90
59855;DHT22;45732;52.850;6.896;2022-11-20T06:38:40;1.40;99.90
59855;DHT22;45732;52.850;6.896;2022-11-20T06:41:11;1.40;99.90
59855;DHT22;45732;52.850;6.896;2022-11-20T06:43:38;1.40;99.90
59855;DHT22;45732;52.850;6.896;2022-11-20T06:46:04;1.40;99.90
59855;DHT22;45732;52.850;6.896;2022-11-20T06:48:29;1.40;99.90
59855;DHT22;45732;52.850;6.896;2022-11-20T06:50:56;1.40;99.90
59855;DHT22;45732;52.850;6.896;2022-11-20T06:53:22;1.40;99.90
59855;DHT22;45732;52.850;6.896;2022-11-20T06:55:48;1.40;99.90
59855;DHT22;45732;52.850;6.896;2022-11-20T06:58:16;1.30;99.90
59855;DHT22;45732;52.850;6.896;2022-11-20T07:00:42;1.30;99.90
59855;DHT22;45732;52.850;6.896;2022-11-20T07:03:09;1.40;99.90
59855;DHT22;45732;52.850;6.896;2022-11-20T07:05:35;1.40;99.90
59855;DHT22;45732;52.850;6.896;2022-11-20T07:08:02;1.40;99.90
59855;DHT22;45732;52.850;6.896;2022-11-20T07:10:27;1.40;99.90
59855;DHT22;45732;52.850;6.896;2022-11-20T07:12:53;1.40;99.90
59855;DHT22;45732;52.850;6.896;2022-11-20T07:15:21;1.40;99.90
59855;DHT22;45732;52.850;6.896;2022-11-20T07:17:47;1.40;99.90
59855;DHT22;45732;52.850;6.896;2022-11-20T07:20:13;1.40;99.90
59855;DHT22;45732;52.850;6.896;2022-11-20T07:22:39;1.40;99.90
59855;DHT22;45732;52.850;6.896;2022-11-20T07:25:05;1.40;99.90
59855;DHT22;45732;52.850;6.896;2022-11-20T07:27:31;1.40;99.90
59855;DHT22;45732;52.850;6.896;2022-11-20T07:29:57;1.40;99.90
59855;DHT22;45732;52.850;6.896;2022-11-20T07:32:23;1.40;99.90
59855;DHT22;45732;52.850;6.896;2022-11-20T07:34:48;1.40;99.90
59855;DHT22;45732;52.850;6.896;2022-11-20T07:37:15;1.40;99.90
59855;DHT22;45732;52.850;6.896;2022-11-20T07:39:41;1.40;99.90
59855;DHT22;45732;52.850;6.896;2022-11-20T07:42:07;1.40;99.90
59855;DHT22;45732;52.850;6.896;2022-11-20T07:44:33;1.40;99.90
59855;DHT22;45732;52.850;6.896;2022-11-20T07:46:59;1.50;99.90
59855;DHT22;45732;52.850;6.896;2022-11-20T07:49:25;1.50;99.90
59855;DHT22;45732;52.850;6.896;2022-11-20T07:51:51;1.50;99.90
59855;DHT22;45732;52.850;6.896;2022-11-20T07:54:19;1.50;99.90
59855;DHT22;45732;52.850;6.896;2022-11-20T07:56:46;1.40;99.90
59855;DHT22;45732;52.850;6.896;2022-11-20T07:59:11;1.40;99.90
59855;DHT22;45732;52.850;6.896;2022-11-20T08:01:38;1.40;99.90
59855;DHT22;45732;52.850;6.896;2022-11-20T08:04:04;1.30;99.90
59855;DHT22;45732;52.850;6.896;2022-11-20T08:06:30;1.40;99.90
59855;DHT22;45732;52.850;6.896;2022-11-20T08:08:55;1.40;99.90
59855;DHT22;45732;52.850;6.896;2022-11-20T08:11:21;1.40;99.90
59855;DHT22;45732;52.850;6.896;2022-11-20T08:14:05;1.40;99.90
59855;DHT22;45732;52.850;6.896;2022-11-20T08:16:38;1.40;99.90
59855;DHT22;45732;52.850;6.896;2022-11-20T08:19:03;1.50;99.90
59855;DHT22;45732;52.850;6.896;2022-11-20T08:21:30;1.40;99.90
59855;DHT22;45732;52.850;6.896;2022-11-20T08:23:57;1.40;99.90
59855;DHT22;45732;52.850;6.896;2022-11-20T08:26:24;1.50;99.90
59855;DHT22;45732;52.850;6.896;2022-11-20T08:28:53;1.50;99.90
59855;DHT22;45732;52.850;6.896;2022-11-20T08:31:20;1.50;99.90
59855;DHT22;45732;52.850;6.896;2022-11-20T08:33:46;1.50;99.90
59855;DHT22;45732;52.850;6.896;2022-11-20T08:36:11;1.50;99.90
59855;DHT22;45732;52.850;6.896;2022-11-20T08:38:37;1.40;99.90
59855;DHT22;45732;52.850;6.896;2022-11-20T08:41:04;1.50;99.90
59855;DHT22;45732;52.850;6.896;2022-11-20T08:43:48;1.50;99.90
59855;DHT22;45732;52.850;6.896;2022-11-20T08:46:14;1.60;99.90
59855;DHT22;45732;52.850;6.896;2022-11-20T08:48:40;1.60;99.90
59855;DHT22;45732;52.850;6.896;2022-11-20T08:51:05;1.60;99.90
59855;DHT22;45732;52.850;6.896;2022-11-20T08:53:31;1.60;99.90
59855;DHT22;45732;52.850;6.896;2022-11-20T08:56:00;1.60;99.90
59855;DHT22;45732;52.850;6.896;2022-11-20T08:58:26;1.50;99.90
59855;DHT22;45732;52.850;6.896;2022-11-20T09:00:52;1.60;99.90
59855;DHT22;45732;52.850;6.896;2022-11-20T09:03:17;1.60;99.90
59855;DHT22;45732;52.850;6.896;2022-11-20T09:05:43;1.60;99.90
59855;DHT22;45732;52.850;6.896;2022-11-20T09:08:09;1.70;99.90
59855;DHT22;45732;52.850;6.896;2022-11-20T09:10:34;1.70;99.90
59855;DHT22;45732;52.850;6.896;2022-11-20T09:13:02;1.70;99.90
59855;DHT22;45732;52.850;6.896;2022-11-20T09:15:27;1.70;99.90
59855;DHT22;45732;52.850;6.896;2022-11-20T09:17:58;1.70;99.90
59855;DHT22;45732;52.850;6.896;2022-11-20T09:20:25;1.70;99.90
59855;DHT22;45732;52.850;6.896;2022-11-20T09:22:50;1.80;99.90
59855;DHT22;45732;52.850;6.896;2022-11-20T09:25:17;1.80;99.90
59855;DHT22;45732;52.850;6.896;2022-11-20T09:27:42;1.80;99.90
59855;DHT22;45732;52.850;6.896;2022-11-20T09:30:12;1.80;99.90
59855;DHT22;45732;52.850;6.896;2022-11-20T09:32:39;1.80;99.90
59855;DHT22;45732;52.850;6.896;2022-11-20T09:35:05;1.80;99.90
59855;DHT22;45732;52.850;6.896;2022-11-20T09:37:31;1.80;99.90
59855;DHT22;45732;52.850;6.896;2022-11-20T09:39:56;1.90;99.90
59855;DHT22;45732;52.850;6.896;2022-11-20T09:45:37;2.00;99.90
59855;DHT22;45732;52.850;6.896;2022-11-20T09:56:40;2.10;99.90
59855;DHT22;45732;52.850;6.896;2022-11-20T09:59:19;2.10;99.90
59855;DHT22;45732;52.850;6.896;2022-11-20T10:01:47;2.10;99.90
59855;DHT22;45732;52.850;6.896;2022-11-20T10:04:17;2.00;99.90
59855;DHT22;45732;52.850;6.896;2022-11-20T10:06:55;2.00;99.90
59855;DHT22;45732;52.850;6.896;2022-11-20T10:09:37;2.10;99.90
59855;DHT22;45732;52.850;6.896;2022-11-20T10:13:14;2.10;99.90
59855;DHT22;45732;52.850;6.896;2022-11-20T10:18:16;2.10;99.90
59855;DHT22;45732;52.850;6.896;2022-11-20T10:29:17;2.30;99.90
59855;DHT22;45732;52.850;6.896;2022-11-20T10:31:56;2.30;99.90
59855;DHT22;45732;52.850;6.896;2022-11-20T10:37:11;2.50;99.90
59855;DHT22;45732;52.850;6.896;2022-11-20T10:39:50;2.60;99.90
59855;DHT22;45732;52.850;6.896;2022-11-20T10:43:06;2.50;99.90
59855;DHT22;45732;52.850;6.896;2022-11-20T10:48:22;2.50;99.90
59855;DHT22;45732;52.850;6.896;2022-11-20T10:58:48;2.80;99.90
59855;DHT22;45732;52.850;6.896;2022-11-20T11:01:20;2.80;99.90
59855;DHT22;45732;52.850;6.896;2022-11-20T11:03:52;2.90;99.90
59855;DHT22;45732;52.850;6.896;2022-11-20T11:06:35;2.90;99.90
59855;DHT22;45732;52.850;6.896;2022-11-20T11:09:04;2.90;99.90
59855;DHT22;45732;52.850;6.896;2022-11-20T11:11:34;3.00;99.90
59855;DHT22;45732;52.850;6.896;2022-11-20T11:14:11;3.10;99.90
59855;DHT22;45732;52.850;6.896;2022-11-20T11:16:49;3.10;99.90
59855;DHT22;45732;52.850;6.896;2022-11-20T11:19:15;3.10;99.90
59855;DHT22;45732;52.850;6.896;2022-11-20T11:21:56;3.10;99.90
59855;DHT22;45732;52.850;6.896;2022-11-20T11:24:26;3.10;99.90
59855;DHT22;45732;52.850;6.896;2022-11-20T11:26:56;3.10;99.90
59855;DHT22;45732;52.850;6.896;2022-11-20T11:29:22;3.20;99.90
59855;DHT22;45732;52.850;6.896;2022-11-20T11:31:49;3.20;99.90
59855;DHT22;45732;52.850;6.896;2022-11-20T11:34:16;3.20;99.90
59855;DHT22;45732;52.850;6.896;2022-11-20T11:36:52;3.20;99.90
59855;DHT22;45732;52.850;6.896;2022-11-20T11:39:20;3.20;99.90
59855;DHT22;45732;52.850;6.896;2022-11-20T11:41:47;3.30;99.90
59855;DHT22;45732;52.850;6.896;2022-11-20T11:44:19;3.30;99.90
59855;DHT22;45732;52.850;6.896;2022-11-20T11:47:05;3.40;99.90
59855;DHT22;45732;52.850;6.896;2022-11-20T11:49:34;3.50;99.90
59855;DHT22;45732;52.850;6.896;2022-11-20T11:54:34;3.50;99.90
59855;DHT22;45732;52.850;6.896;2022-11-20T11:57:03;3.50;99.90
59855;DHT22;45732;52.850;6.896;2022-11-20T12:05:25;3.50;99.90
59855;DHT22;45732;52.850;6.896;2022-11-20T12:08:11;3.40;99.90
59855;DHT22;45732;52.850;6.896;2022-11-20T12:13:37;3.40;99.90
59855;DHT22;45732;52.850;6.896;2022-11-20T12:16:07;3.50;99.90
59855;DHT22;45732;52.850;6.896;2022-11-20T12:18:36;3.60;99.90
59855;DHT22;45732;52.850;6.896;2022-11-20T12:21:25;3.70;99.90
59855;DHT22;45732;52.850;6.896;2022-11-20T12:24:32;3.80;99.90
59855;DHT22;45732;52.850;6.896;2022-11-20T12:30:01;4.00;99.90
59855;DHT22;45732;52.850;6.896;2022-11-20T12:50:06;4.20;99.90
59855;DHT22;45732;52.850;6.896;2022-11-20T12:53:03;4.20;99.90
59855;DHT22;45732;52.850;6.896;2022-11-20T13:06:35;4.10;99.90
59855;DHT22;45732;52.850;6.896;2022-11-20T13:09:02;4.20;99.90
59855;DHT22;45732;52.850;6.896;2022-11-20T13:12:13;4.20;99.90
59855;DHT22;45732;52.850;6.896;2022-11-20T13:14:54;4.30;99.90
59855;DHT22;45732;52.850;6.896;2022-11-20T13:20:14;4.40;99.90
59855;DHT22;45732;52.850;6.896;2022-11-20T13:25:10;4.30;99.90
59855;DHT22;45732;52.850;6.896;2022-11-20T13:27:47;4.20;99.90
59855;DHT22;45732;52.850;6.896;2022-11-20T13:30:15;4.10;99.90
59855;DHT22;45732;52.850;6.896;2022-11-20T13:32:58;4.10;99.90
59855;DHT22;45732;52.850;6.896;2022-11-20T13:35:37;4.10;99.90
59855;DHT22;45732;52.850;6.896;2022-11-20T13:38:12;4.10;99.90
59855;DHT22;45732;52.850;6.896;2022-11-20T13:43:39;4.20;99.90
59855;DHT22;45732;52.850;6.896;2022-11-20T13:46:07;4.30;99.90
59855;DHT22;45732;52.850;6.896;2022-11-20T13:48:44;4.30;99.90
59855;DHT22;45732;52.850;6.896;2022-11-20T14:01:59;4.30;99.90
59855;DHT22;45732;52.850;6.896;2022-11-20T14:04:33;4.20;99.90
59855;DHT22;45732;52.850;6.896;2022-11-20T14:06:59;4.20;99.90
59855;DHT22;45732;52.850;6.896;2022-11-20T14:09:33;4.10;99.90
59855;DHT22;45732;52.850;6.896;2022-11-20T14:11:59;4.00;99.90
59855;DHT22;45732;52.850;6.896;2022-11-20T14:14:27;4.00;99.90
59855;DHT22;45732;52.850;6.896;2022-11-20T14:17:15;4.00;99.90
59855;DHT22;45732;52.850;6.896;2022-11-20T14:19:44;4.00;99.90
59855;DHT22;45732;52.850;6.896;2022-11-20T14:27:34;3.80;99.90
59855;DHT22;45732;52.850;6.896;2022-11-20T14:30:02;3.80;99.90
59855;DHT22;45732;52.850;6.896;2022-11-20T14:32:29;3.70;99.90
59855;DHT22;45732;52.850;6.896;2022-11-20T14:35:02;3.70;99.90
59855;DHT22;45732;52.850;6.896;2022-11-20T14:37:33;3.60;99.90
59855;DHT22;45732;52.850;6.896;2022-11-20T14:40:01;3.60;99.90
59855;DHT22;45732;52.850;6.896;2022-11-20T14:42:28;3.50;99.90
59855;DHT22;45732;52.850;6.896;2022-11-20T14:44:59;3.50;99.90
59855;DHT22;45732;52.850;6.896;2022-11-20T14:47:27;3.50;99.90
59855;DHT22;45732;52.850;6.896;2022-11-20T14:49:55;3.50;99.90
59855;DHT22;45732;52.850;6.896;2022-11-20T14:52:24;3.50;99.90
59855;DHT22;45732;52.850;6.896;2022-11-20T14:55:00;3.50;99.90
59855;DHT22;45732;52.850;6.896;2022-11-20T14:57:29;3.50;99.90
59855;DHT22;45732;52.850;6.896;2022-11-20T15:02:31;3.50;99.90
59855;DHT22;45732;52.850;6.896;2022-11-20T15:04:58;3.40;99.90
59855;DHT22;45732;52.850;6.896;2022-11-20T15:07:26;3.40;99.90
59855;DHT22;45732;52.850;6.896;2022-11-20T15:10:23;3.40;99.90
59855;DHT22;45732;52.850;6.896;2022-11-20T15:13:45;3.40;99.90
59855;DHT22;45732;52.850;6.896;2022-11-20T15:15:54;3.40;99.90
59855;DHT22;45732;52.850;6.896;2022-11-20T15:18:30;3.30;99.90
59855;DHT22;45732;52.850;6.896;2022-11-20T15:20:58;3.30;99.90
59855;DHT22;45732;52.850;6.896;2022-11-20T15:23:26;3.30;99.90
59855;DHT22;45732;52.850;6.896;2022-11-20T15:25:52;3.30;99.90
59855;DHT22;45732;52.850;6.896;2022-11-20T15:28:19;3.30;99.90
59855;DHT22;45732;52.850;6.896;2022-11-20T15:30:49;3.20;99.90
59855;DHT22;45732;52.850;6.896;2022-11-20T15:33:16;3.30;99.90
59855;DHT22;45732;52.850;6.896;2022-11-20T15:35:43;3.20;99.90
59855;DHT22;45732;52.850;6.896;2022-11-20T15:38:09;3.20;99.90
59855;DHT22;45732;52.850;6.896;2022-11-20T15:40:35;3.20;99.90
59855;DHT22;45732;52.850;6.896;2022-11-20T15:43:01;3.20;99.90
59855;DHT22;45732;52.850;6.896;2022-11-20T15:48:03;3.10;99.90
59855;DHT22;45732;52.850;6.896;2022-11-20T15:50:51;3.10;99.90
59855;DHT22;45732;52.850;6.896;2022-11-20T15:53:18;3.20;99.90
59855;DHT22;45732;52.850;6.896;2022-11-20T15:55:44;3.10;99.90
59855;DHT22;45732;52.850;6.896;2022-11-20T15:58:11;3.10;99.90
59855;DHT22;45732;52.850;6.896;2022-11-20T16:00:36;3.10;99.90
59855;DHT22;45732;52.850;6.896;2022-11-20T16:03:02;3.00;99.90
59855;DHT22;45732;52.850;6.896;2022-11-20T16:05:29;3.00;99.90
59855;DHT22;45732;52.850;6.896;2022-11-20T16:07:55;3.00;99.90
59855;DHT22;45732;52.850;6.896;2022-11-20T16:10:21;3.00;99.90
59855;DHT22;45732;52.850;6.896;2022-11-20T16:12:47;3.00;99.90
59855;DHT22;45732;52.850;6.896;2022-11-20T16:15:31;3.00;99.90
59855;DHT22;45732;52.850;6.896;2022-11-20T16:18:23;3.00;99.90
59855;DHT22;45732;52.850;6.896;2022-11-20T16:20:51;2.90;99.90
59855;DHT22;45732;52.850;6.896;2022-11-20T16:23:17;3.00;99.90
59855;DHT22;45732;52.850;6.896;2022-11-20T16:25:44;3.00;99.90
59855;DHT22;45732;52.850;6.896;2022-11-20T16:28:10;3.00;99.90
59855;DHT22;45732;52.850;6.896;2022-11-20T16:30:37;3.00;99.90
59855;DHT22;45732;52.850;6.896;2022-11-20T16:33:03;3.00;99.90
59855;DHT22;45732;52.850;6.896;2022-11-20T16:35:30;2.90;99.90
59855;DHT22;45732;52.850;6.896;2022-11-20T16:37:57;3.00;99.90
59855;DHT22;45732;52.850;6.896;2022-11-20T16:40:23;2.90;99.90
59855;DHT22;45732;52.850;6.896;2022-11-20T16:42:49;3.00;99.90
59855;DHT22;45732;52.850;6.896;2022-11-20T16:45:15;2.90;99.90
59855;DHT22;45732;52.850;6.896;2022-11-20T16:47:41;2.90;99.90
59855;DHT22;45732;52.850;6.896;2022-11-20T16:50:07;2.90;99.90
59855;DHT22;45732;52.850;6.896;2022-11-20T16:52:33;2.90;99.90
59855;DHT22;45732;52.850;6.896;2022-11-20T16:54:59;2.90;99.90
59855;DHT22;45732;52.850;6.896;2022-11-20T16:57:27;2.90;99.90
59855;DHT22;45732;52.850;6.896;2022-11-20T16:59:54;2.90;99.90
59855;DHT22;45732;52.850;6.896;2022-11-20T17:02:20;2.90;99.90
59855;DHT22;45732;52.850;6.896;2022-11-20T17:04:46;2.90;99.90
59855;DHT22;45732;52.850;6.896;2022-11-20T17:07:12;3.00;99.90
59855;DHT22;45732;52.850;6.896;2022-11-20T17:09:38;2.90;99.90
59855;DHT22;45732;52.850;6.896;2022-11-20T17:12:04;3.00;99.90
59855;DHT22;45732;52.850;6.896;2022-11-20T17:14:30;3.00;99.90
59855;DHT22;45732;52.850;6.896;2022-11-20T17:16:56;3.00;99.90
59855;DHT22;45732;52.850;6.896;2022-11-20T17:19:21;3.00;99.90
59855;DHT22;45732;52.850;6.896;2022-11-20T17:21:47;2.90;99.90
59855;DHT22;45732;52.850;6.896;2022-11-20T17:24:13;2.90;99.90
59855;DHT22;45732;52.850;6.896;2022-11-20T17:26:41;2.90;99.90
59855;DHT22;45732;52.850;6.896;2022-11-20T17:29:13;2.90;99.90
59855;DHT22;45732;52.850;6.896;2022-11-20T17:31:40;2.90;99.90
59855;DHT22;45732;52.850;6.896;2022-11-20T17:34:07;2.90;99.90
59855;DHT22;45732;52.850;6.896;2022-11-20T17:36:35;2.90;99.90
59855;DHT22;45732;52.850;6.896;2022-11-20T17:39:01;2.80;99.90
59855;DHT22;45732;52.850;6.896;2022-11-20T17:41:28;2.80;99.90
59855;DHT22;45732;52.850;6.896;2022-11-20T17:43:56;2.80;99.90
59855;DHT22;45732;52.850;6.896;2022-11-20T17:46:24;2.80;99.90
59855;DHT22;45732;52.850;6.896;2022-11-20T17:48:50;2.80;99.90
59855;DHT22;45732;52.850;6.896;2022-11-20T17:51:24;2.80;99.90
59855;DHT22;45732;52.850;6.896;2022-11-20T17:53:52;2.80;99.90
59855;DHT22;45732;52.850;6.896;2022-11-20T17:56:18;2.80;99.90
59855;DHT22;45732;52.850;6.896;2022-11-20T17:59:07;2.80;99.90